Time;durP1;ratioP1;P1;durP2;ratioP2;P2;SDS_P1;SDS_P2;PMS_P1;PMS_P2;Temp;Humidity;BMP_temperature;BMP_pressure;BME280_temperature;BME280_humidity;BME280_pressure;Samples;Min_cycle;Max_cycle;Signal;HPM_P1;HPM_P2
2023/01/15 00:02:03;;;;;;;1.25;0.30;;;;;;;12.69;61.77;97914.75;5241362;28;20567;-69
2023/01/15 00:04:53;;;;;;;0.88;0.30;;;;;;;12.66;61.38;97904.47;5242053;28;20128;-70
2023/01/15 00:07:43;;;;;;;0.55;0.20;;;;;;;12.63;61.91;97896.03;5242815;28;20075;-70
2023/01/15 00:10:34;;;;;;;0.85;0.40;;;;;;;12.90;60.45;97876.75;5242998;28;20053;-72
2023/01/15 00:13:24;;;;;;;2.15;0.50;;;;;;;12.92;60.49;97879.25;5235881;28;20056;-70
2023/01/15 00:16:20;;;;;;;0.68;0.50;;;;;;;12.52;62.39;97880.56;5234291;28;20045;-69
2023/01/15 00:19:11;;;;;;;0.70;0.40;;;;;;;12.45;63.34;97872.50;5238350;28;20063;-71
2023/01/15 00:22:01;;;;;;;0.55;0.30;;;;;;;12.63;62.57;97872.94;5236362;28;20048;-74
2023/01/15 00:28:00;;;;;;;0.88;0.38;;;;;;;12.35;63.29;97851.50;5239261;28;20105;-71
2023/01/15 00:30:51;;;;;;;0.82;0.30;;;;;;;12.47;62.15;97833.25;5241614;28;20044;-69
2023/01/15 00:33:41;;;;;;;1.10;0.32;;;;;;;12.43;63.08;97847.91;5217453;28;20056;-73
2023/01/15 00:36:32;;;;;;;0.40;0.30;;;;;;;12.64;62.03;97839.19;5218127;28;20687;-71
2023/01/15 00:39:25;;;;;;;0.20;0.20;;;;;;;12.93;61.44;97847.13;5245904;28;20469;-70
2023/01/15 00:42:16;;;;;;;1.33;0.43;;;;;;;12.08;64.09;97842.28;5236651;28;20056;-72
2023/01/15 00:45:11;;;;;;;1.10;0.38;;;;;;;12.62;62.12;97831.41;5224922;28;20133;-69
2023/01/15 00:48:01;;;;;;;0.60;0.30;;;;;;;12.82;61.72;97825.50;5218936;28;20083;-69
2023/01/15 00:50:52;;;;;;;0.40;0.20;;;;;;;12.70;61.95;97827.81;5241230;28;20441;-70
2023/01/15 00:53:42;;;;;;;1.27;0.32;;;;;;;13.08;60.92;97820.50;5224333;28;20041;-71
2023/01/15 00:56:32;;;;;;;1.00;0.22;;;;;;;13.27;60.86;97810.25;5223197;28;20516;-71
2023/01/15 00:59:23;;;;;;;0.80;0.40;;;;;;;12.84;61.48;97810.16;5212640;28;20074;-71
2023/01/15 01:02:14;;;;;;;0.77;0.30;;;;;;;12.68;61.55;97793.44;5230973;28;20781;-70
2023/01/15 01:05:04;;;;;;;1.45;0.40;;;;;;;12.65;62.43;97804.44;5231006;28;20102;-71
2023/01/15 01:07:54;;;;;;;0.50;0.30;;;;;;;13.19;60.82;97791.72;5230206;28;20094;-72
2023/01/15 01:10:44;;;;;;;1.20;0.32;;;;;;;13.49;59.61;97805.75;5232591;28;20131;-69
2023/01/15 01:13:36;;;;;;;0.10;0.10;;;;;;;13.52;59.78;97805.38;5235517;28;20065;-72
2023/01/15 01:16:32;;;;;;;0.38;0.28;;;;;;;13.70;59.21;97807.56;5245277;28;20526;-69
2023/01/15 01:19:24;;;;;;;1.77;0.45;;;;;;;13.37;60.07;97792.13;5227358;28;20106;-71
2023/01/15 01:22:13;;;;;;;2.35;0.30;;;;;;;13.53;59.63;97797.19;5241212;28;20201;-70
2023/01/15 01:25:04;;;;;;;0.50;0.20;;;;;;;13.32;59.94;97784.72;5234211;28;20056;-70
2023/01/15 01:27:55;;;;;;;0.70;0.30;;;;;;;13.52;59.59;97795.53;5215290;28;20075;-71
2023/01/15 01:30:45;;;;;;;0.50;0.28;;;;;;;13.02;61.82;97799.94;5227917;28;20075;-70
2023/01/15 01:33:35;;;;;;;3.05;0.30;;;;;;;13.37;59.64;97781.47;5235409;28;20537;-70
2023/01/15 01:36:33;;;;;;;2.22;0.30;;;;;;;12.69;61.83;97780.97;5209783;28;20107;-70
2023/01/15 01:39:23;;;;;;;2.83;0.20;;;;;;;13.20;60.29;97786.19;5209604;28;20131;-70
2023/01/15 01:42:15;;;;;;;0.88;0.17;;;;;;;12.91;61.09;97760.50;5238570;28;20122;-70
2023/01/15 01:45:24;;;;;;;0.22;0.20;;;;;;;13.24;60.69;97770.66;5241471;28;20048;-70
2023/01/15 01:48:17;;;;;;;0.77;0.20;;;;;;;13.10;60.38;97757.22;5208630;28;20072;-70
2023/01/15 01:51:07;;;;;;;0.45;0.28;;;;;;;13.31;60.27;97771.56;5222577;28;20064;-70
2023/01/15 01:53:59;;;;;;;0.30;0.20;;;;;;;12.96;61.34;97765.28;5221184;28;20519;-70
2023/01/15 01:56:50;;;;;;;0.20;0.10;;;;;;;13.57;59.85;97766.47;5213925;28;20056;-70
2023/01/15 01:59:42;;;;;;;0.20;0.20;;;;;;;13.49;59.79;97753.31;5217820;28;20406;-71
2023/01/15 02:02:33;;;;;;;0.75;0.10;;;;;;;13.29;60.33;97747.81;5239079;28;20055;-70
2023/01/15 02:05:27;;;;;;;0.20;0.20;;;;;;;13.55;59.75;97751.72;5224192;28;20049;-71
2023/01/15 02:08:17;;;;;;;0.10;0.10;;;;;;;13.50;60.02;97744.31;5224249;28;20080;-70
2023/01/15 02:11:16;;;;;;;0.30;0.17;;;;;;;13.16;60.89;97740.50;5213870;28;20059;-70
2023/01/15 02:14:29;;;;;;;0.40;0.20;;;;;;;13.43;60.50;97740.75;5239270;28;20056;-70
2023/01/15 02:17:34;;;;;;;0.10;0.10;;;;;;;13.39;60.69;97742.16;5242069;28;20047;-71
2023/01/15 02:20:46;;;;;;;0.10;0.10;;;;;;;13.36;60.40;97738.03;5225427;28;20064;-71
2023/01/15 02:23:57;;;;;;;0.00;0.00;;;;;;;13.38;60.88;97735.22;5232339;28;20078;-71
2023/01/15 02:27:03;;;;;;;0.10;0.10;;;;;;;13.23;61.23;97737.09;5209042;28;20059;-71
2023/01/15 02:29:59;;;;;;;0.30;0.13;;;;;;;13.51;60.63;97727.31;5224926;28;20105;-70
2023/01/15 02:33:13;;;;;;;0.38;0.10;;;;;;;13.78;60.06;97724.84;5211057;28;20045;-71
2023/01/15 02:36:07;;;;;;;0.75;0.20;;;;;;;13.49;60.63;97721.34;5223311;28;20048;-70
2023/01/15 02:39:03;;;;;;;1.20;0.10;;;;;;;13.76;59.77;97706.38;5221873;28;20044;-71
2023/01/15 02:41:59;;;;;;;0.20;0.05;;;;;;;13.85;59.24;97702.56;5218446;28;20055;-70
2023/01/15 02:44:57;;;;;;;0.28;0.10;;;;;;;13.81;60.69;97730.59;5229455;28;20410;-71
2023/01/15 02:47:49;;;;;;;0.30;0.17;;;;;;;13.85;60.72;97733.69;5231481;28;20052;-71
2023/01/15 02:50:44;;;;;;;0.10;0.10;;;;;;;13.58;61.60;97740.69;5244536;28;20495;-71
2023/01/15 02:53:37;;;;;;;0.10;0.10;;;;;;;13.14;62.83;97731.91;5244614;28;20141;-70
2023/01/15 02:56:32;;;;;;;1.60;0.10;;;;;;;13.81;61.40;97719.13;5213489;28;20166;-71
2023/01/15 02:59:28;;;;;;;0.10;0.10;;;;;;;13.71;61.38;97730.13;5227918;28;20088;-71
2023/01/15 03:02:25;;;;;;;0.13;0.10;;;;;;;13.44;62.31;97712.28;5228704;28;20072;-71
2023/01/15 03:05:23;;;;;;;0.05;0.05;;;;;;;13.51;62.58;97726.47;5228801;28;20051;-71
2023/01/15 03:08:14;;;;;;;1.40;0.10;;;;;;;13.41;62.95;97702.88;5228419;28;20105;-71
2023/01/15 03:11:13;;;;;;;1.50;0.10;;;;;;;13.74;61.30;97699.59;5227191;28;20835;-71
2023/01/15 03:14:19;;;;;;;0.40;0.10;;;;;;;13.50;62.30;97699.03;5226374;28;20048;-71
2023/01/15 03:17:18;;;;;;;1.77;0.08;;;;;;;13.41;62.05;97692.22;5208452;28;20045;-71
2023/01/15 03:20:19;;;;;;;0.10;0.03;;;;;;;13.78;61.28;97693.69;5227255;28;20059;-71
2023/01/15 03:23:15;;;;;;;1.35;0.10;;;;;;;13.93;60.73;97684.75;5211948;28;20423;-70
2023/01/15 03:26:05;;;;;;;0.45;0.00;;;;;;;14.15;59.66;97672.97;5236796;28;20099;-71
2023/01/15 03:29:04;;;;;;;0.25;0.08;;;;;;;13.95;60.60;97688.06;5224455;28;20429;-70
2023/01/15 03:31:58;;;;;;;0.32;0.20;;;;;;;14.09;60.40;97693.25;5228485;28;20059;-71
2023/01/15 03:34:53;;;;;;;0.20;0.10;;;;;;;14.29;59.33;97684.50;5225068;28;20048;-70
2023/01/15 03:37:44;;;;;;;0.10;0.05;;;;;;;14.33;59.19;97683.91;5228224;28;20099;-71
2023/01/15 03:40:37;;;;;;;4.40;0.38;;;;;;;13.98;60.45;97677.81;5213789;28;20534;-71
2023/01/15 03:43:43;;;;;;;0.43;0.08;;;;;;;13.84;60.14;97676.94;5224365;28;20049;-71
2023/01/15 03:46:55;;;;;;;0.73;0.10;;;;;;;13.90;60.94;97675.31;5227374;28;20072;-71
2023/01/15 03:49:58;;;;;;;0.10;0.10;;;;;;;14.00;60.35;97682.94;5221894;28;20052;-71
2023/01/15 03:53:14;;;;;;;2.90;0.20;;;;;;;13.58;61.10;97687.44;5226406;28;20044;-70
2023/01/15 03:56:35;;;;;;;0.20;0.17;;;;;;;13.59;61.65;97678.41;5226370;28;20142;-71
2023/01/15 03:59:38;;;;;;;2.35;0.20;;;;;;;13.88;61.05;97673.88;5229010;28;20098;-71
2023/01/15 04:02:30;;;;;;;0.00;0.00;;;;;;;13.95;60.43;97666.75;5230899;28;20107;-71
2023/01/15 04:05:21;;;;;;;0.03;0.03;;;;;;;13.81;61.22;97669.34;5230411;28;20498;-71
2023/01/15 04:08:13;;;;;;;0.32;0.10;;;;;;;14.20;60.71;97661.69;5225946;28;20064;-71
2023/01/15 04:11:08;;;;;;;0.20;0.10;;;;;;;13.58;62.26;97648.31;5243500;28;20127;-71
2023/01/15 04:14:12;;;;;;;0.10;0.10;;;;;;;13.80;60.83;97649.03;5234867;28;20055;-71
2023/01/15 04:17:16;;;;;;;0.22;0.10;;;;;;;13.76;60.32;97621.13;5195096;23;20053;-71
2023/01/15 04:20:07;;;;;;;0.20;0.10;;;;;;;13.84;60.66;97644.97;5162128;28;20061;-72
2023/01/15 04:23:01;;;;;;;0.10;0.00;;;;;;;13.85;60.42;97646.59;5156067;28;20052;-71
2023/01/15 04:25:52;;;;;;;0.45;0.10;;;;;;;13.70;60.89;97637.91;5163657;28;20133;-71
2023/01/15 04:28:42;;;;;;;2.03;0.10;;;;;;;14.00;59.88;97634.97;5164029;28;20425;-71
2023/01/15 04:31:32;;;;;;;0.30;0.20;;;;;;;13.89;60.35;97633.69;5141731;28;20420;-70
2023/01/15 04:34:26;;;;;;;0.10;0.08;;;;;;;14.17;60.04;97630.09;5147202;28;20545;-70
2023/01/15 04:37:17;;;;;;;0.70;0.00;;;;;;;13.24;61.95;97643.75;5129851;28;20159;-72
2023/01/15 04:40:08;;;;;;;0.65;0.17;;;;;;;13.95;60.37;97638.25;5148322;28;20057;-71
2023/01/15 04:46:06;;;;;;;0.20;0.10;;;;;;;13.99;60.28;97615.50;5160873;28;20057;-72
2023/01/15 04:48:57;;;;;;;0.15;0.10;;;;;;;13.96;60.35;97615.91;5142082;28;20133;-70
2023/01/15 04:51:47;;;;;;;1.27;0.10;;;;;;;13.46;62.06;97627.72;5162622;28;20112;-71
2023/01/15 04:54:38;;;;;;;0.10;0.10;;;;;;;13.94;60.84;97623.28;5153666;28;20150;-72
2023/01/15 04:57:28;;;;;;;0.40;0.10;;;;;;;13.35;62.26;97607.81;5146114;28;20077;-72
2023/01/15 05:00:18;;;;;;;0.00;0.00;;;;;;;13.30;63.23;97658.94;5155607;28;20054;-70
2023/01/15 05:03:08;;;;;;;1.15;0.20;;;;;;;11.36;71.89;97712.69;5163652;28;20116;-71
2023/01/15 05:06:02;;;;;;;3.40;0.30;;;;;;;10.32;77.84;97716.72;5163631;28;20061;-72
2023/01/15 05:08:52;;;;;;;0.22;0.10;;;;;;;10.49;76.52;97709.50;5162539;28;20101;-70
2023/01/15 05:11:43;;;;;;;0.65;0.00;;;;;;;10.70;75.11;97744.19;5136475;28;20425;-70
2023/01/15 05:14:33;;;;;;;0.70;0.10;;;;;;;10.28;75.30;97748.03;5152338;28;20053;-71
2023/01/15 05:17:23;;;;;;;0.20;0.00;;;;;;;9.79;77.18;97745.53;5151097;28;20168;-70
2023/01/15 05:20:14;;;;;;;0.10;0.10;;;;;;;9.43;78.01;97741.63;5161720;28;20524;-71
2023/01/15 05:23:04;;;;;;;0.00;0.00;;;;;;;9.41;78.55;97758.50;5154056;28;20047;-70
2023/01/15 05:25:54;;;;;;;0.80;0.10;;;;;;;9.58;77.10;97761.13;5144037;28;20129;-70
2023/01/15 05:28:44;;;;;;;0.08;0.08;;;;;;;9.68;76.59;97775.00;5152282;28;20050;-70
2023/01/15 05:31:35;;;;;;;0.13;0.00;;;;;;;9.10;77.69;97770.72;5155718;28;20054;-70
2023/01/15 05:34:25;;;;;;;0.22;0.03;;;;;;;9.38;76.18;97780.00;5143670;28;20046;-70
2023/01/15 05:37:15;;;;;;;2.92;0.13;;;;;;;9.02;77.38;97784.78;5160413;28;20046;-70
2023/01/15 05:40:07;;;;;;;0.10;0.10;;;;;;;9.04;77.38;97793.38;5144222;28;20080;-70
2023/01/15 05:42:57;;;;;;;0.20;0.10;;;;;;;9.43;74.83;97798.00;5146517;28;20054;-70
2023/01/15 05:45:47;;;;;;;0.20;0.10;;;;;;;9.09;75.64;97782.31;5161817;28;20050;-70
2023/01/15 05:48:38;;;;;;;0.10;0.10;;;;;;;8.52;78.23;97787.47;5151173;28;20134;-70
2023/01/15 05:51:28;;;;;;;0.00;0.00;;;;;;;8.70;78.59;97785.53;5160139;28;20728;-70
2023/01/15 05:54:21;;;;;;;0.10;0.10;;;;;;;8.43;77.74;97790.06;5132191;28;20046;-70
2023/01/15 05:57:11;;;;;;;0.00;0.00;;;;;;;8.09;78.46;97798.00;5155225;28;20054;-70
2023/01/15 06:00:03;;;;;;;0.03;0.03;;;;;;;8.31;79.39;97820.38;5144391;28;20077;-70
2023/01/15 06:03:01;;;;;;;0.40;0.20;;;;;;;8.84;75.73;97823.72;5151212;28;20053;-70
2023/01/15 06:05:53;;;;;;;0.10;0.10;;;;;;;8.77;76.07;97812.13;5147310;28;20066;-70
2023/01/15 06:08:44;;;;;;;0.68;0.20;;;;;;;8.78;76.81;97816.47;5145700;28;20750;-70
2023/01/15 06:11:35;;;;;;;0.30;0.10;;;;;;;8.21;78.71;97827.56;5155547;28;20754;-70
2023/01/15 06:14:25;;;;;;;0.25;0.20;;;;;;;8.20;79.20;97832.03;5156267;28;20069;-71
2023/01/15 06:17:15;;;;;;;0.25;0.10;;;;;;;8.66;77.93;97829.94;5152699;28;20106;-71
2023/01/15 06:20:06;;;;;;;0.80;0.20;;;;;;;8.18;78.33;97818.19;5156810;28;20689;-70
2023/01/15 06:22:56;;;;;;;0.63;0.20;;;;;;;8.03;77.23;97793.34;5147347;28;20714;-69
2023/01/15 06:25:46;;;;;;;0.30;0.30;;;;;;;8.43;77.14;97837.63;5139065;28;20125;-69
2023/01/15 06:28:37;;;;;;;0.10;0.10;;;;;;;8.08;78.35;97862.34;5151117;28;20356;-69
2023/01/15 06:31:27;;;;;;;0.10;0.10;;;;;;;7.98;79.37;97872.19;5149502;28;20274;-69
2023/01/15 06:34:17;;;;;;;0.32;0.22;;;;;;;7.95;80.34;97870.69;5160028;28;20046;-69
2023/01/15 06:37:07;;;;;;;0.10;0.10;;;;;;;8.08;79.13;97882.63;5152259;28;20423;-70
2023/01/15 06:39:58;;;;;;;0.20;0.20;;;;;;;8.06;78.75;97880.16;5155920;28;20459;-69
2023/01/15 06:49:06;;;;;;;0.40;0.40;;;;;;;7.68;77.88;97913.84;5161854;28;20527;-70
2023/01/15 06:51:57;;;;;;;0.80;0.40;;;;;;;7.57;79.56;97915.88;5157126;28;20180;-69
2023/01/15 06:54:47;;;;;;;0.38;0.38;;;;;;;7.42;78.51;97902.41;5160079;28;20065;-70
2023/01/15 06:57:38;;;;;;;0.50;0.35;;;;;;;7.82;75.83;97924.84;5161696;28;20069;-70
2023/01/15 07:00:28;;;;;;;2.72;0.20;;;;;;;7.50;77.01;97961.31;5161763;28;20503;-69
2023/01/15 07:03:19;;;;;;;0.17;0.17;;;;;;;7.61;75.60;97973.44;5136767;28;20069;-70
2023/01/15 07:06:12;;;;;;;1.70;0.40;;;;;;;7.33;77.48;97964.78;5149513;28;20038;-70
2023/01/15 07:09:02;;;;;;;0.40;0.20;;;;;;;7.81;74.55;97975.94;5149457;28;20405;-70
2023/01/15 07:11:52;;;;;;;0.20;0.20;;;;;;;7.64;75.11;98002.16;5152979;28;20064;-69
2023/01/15 07:14:43;;;;;;;0.35;0.20;;;;;;;7.58;73.68;97992.22;5151489;28;20057;-70
2023/01/15 07:17:33;;;;;;;0.90;0.70;;;;;;;6.78;76.56;97999.03;5142253;28;20513;-70
2023/01/15 07:20:23;;;;;;;1.17;0.70;;;;;;;7.42;74.49;98006.09;5146562;28;20043;-69
2023/01/15 07:23:13;;;;;;;3.90;0.95;;;;;;;6.68;76.96;97998.22;5160017;28;20189;-70
2023/01/15 07:26:05;;;;;;;0.60;0.40;;;;;;;6.50;77.68;98004.25;5150351;28;20058;-70
2023/01/15 07:28:56;;;;;;;1.10;0.70;;;;;;;6.89;77.18;98012.03;5138926;28;20109;-70
2023/01/15 07:31:46;;;;;;;0.65;0.57;;;;;;;7.02;76.48;97998.53;5155327;28;20451;-70
2023/01/15 07:34:37;;;;;;;0.90;0.40;;;;;;;7.34;75.26;98000.69;5146778;28;20065;-69
2023/01/15 07:37:27;;;;;;;0.30;0.20;;;;;;;6.97;75.19;98022.66;5154095;28;20534;-70
2023/01/15 07:40:18;;;;;;;0.30;0.30;;;;;;;6.69;76.00;98020.94;5149658;28;20047;-70
2023/01/15 07:49:44;;;;;;;0.85;0.30;;;;;;;6.58;76.48;98024.59;5164811;28;20128;-70
2023/01/15 07:52:35;;;;;;;1.30;0.52;;;;;;;6.87;75.38;98031.59;5146891;28;20065;-70
2023/01/15 07:55:25;;;;;;;1.55;0.47;;;;;;;7.22;74.44;98015.91;5159557;28;20049;-70
2023/01/15 07:58:15;;;;;;;0.65;0.47;;;;;;;7.08;73.02;98024.28;5159315;28;20057;-70
2023/01/15 08:01:05;;;;;;;0.90;0.50;;;;;;;7.01;73.40;98060.94;5142045;28;20415;-70
2023/01/15 08:03:55;;;;;;;1.33;0.73;;;;;;;6.97;73.73;98067.47;5148082;28;20065;-71
2023/01/15 08:06:46;;;;;;;1.80;0.70;;;;;;;6.83;74.44;98060.03;5149606;28;20058;-70
2023/01/15 08:09:36;;;;;;;2.47;1.00;;;;;;;7.07;74.00;98057.72;5141964;28;20050;-70
2023/01/15 08:15:42;;;;;;;6.35;0.98;;;;;;;7.23;73.52;98078.19;5153379;28;20396;-70
2023/01/15 08:18:32;;;;;;;2.22;1.10;;;;;;;7.37;73.12;98086.59;5153811;28;20051;-69
2023/01/15 08:21:22;;;;;;;1.63;0.90;;;;;;;7.30;73.35;98103.00;5161649;28;20053;-69
2023/01/15 08:24:12;;;;;;;1.95;0.90;;;;;;;6.96;74.22;98096.63;5155763;28;20185;-69
2023/01/15 08:27:03;;;;;;;2.47;1.02;;;;;;;7.04;74.41;98071.19;5151121;28;20042;-71
2023/01/15 08:29:53;;;;;;;1.08;0.65;;;;;;;7.06;74.53;98078.97;5154781;28;20057;-69
2023/01/15 08:32:44;;;;;;;1.48;0.50;;;;;;;7.33;74.35;98083.44;5134624;28;20053;-72
2023/01/15 08:35:34;;;;;;;3.30;0.90;;;;;;;6.89;75.89;98108.69;5158584;28;20505;-69
2023/01/15 08:38:24;;;;;;;0.40;0.40;;;;;;;6.99;75.39;98115.59;5147994;28;20084;-71
2023/01/15 08:41:15;;;;;;;0.38;0.35;;;;;;;6.69;75.11;98123.69;5149395;28;20078;-70
2023/01/15 08:44:05;;;;;;;0.40;0.30;;;;;;;7.01;75.32;98124.19;5158375;28;20456;-71
2023/01/15 08:46:55;;;;;;;0.73;0.32;;;;;;;6.49;74.75;98118.47;5157902;28;20038;-71
2023/01/15 08:49:47;;;;;;;0.63;0.30;;;;;;;6.91;74.49;98112.00;5161066;28;20054;-70
2023/01/15 08:52:38;;;;;;;0.50;0.30;;;;;;;6.48;75.26;98115.94;5153828;28;20065;-72
2023/01/15 08:55:28;;;;;;;0.40;0.28;;;;;;;6.27;76.82;98142.44;5156065;28;20051;-71
2023/01/15 08:58:18;;;;;;;0.57;0.20;;;;;;;5.73;76.33;98147.16;5148832;28;20058;-72
2023/01/15 09:01:11;;;;;;;0.30;0.20;;;;;;;6.00;76.33;98158.88;5150329;28;20090;-71
2023/01/15 09:04:01;;;;;;;1.33;0.55;;;;;;;6.45;75.55;98156.56;5154494;28;20046;-72
2023/01/15 09:06:52;;;;;;;1.05;0.28;;;;;;;6.63;74.18;98164.59;5151281;28;20201;-71
2023/01/15 09:09:42;;;;;;;0.20;0.20;;;;;;;6.50;73.84;98166.69;5154637;28;20127;-70
2023/01/15 09:12:32;;;;;;;0.50;0.17;;;;;;;6.79;74.88;98167.50;5149206;28;20664;-70
2023/01/15 09:15:22;;;;;;;0.60;0.30;;;;;;;6.15;75.27;98177.72;5153245;28;20070;-70
2023/01/15 09:18:15;;;;;;;0.47;0.30;;;;;;;6.70;74.45;98193.88;5149288;28;20055;-71
2023/01/15 09:21:05;;;;;;;0.33;0.20;;;;;;;6.19;75.56;98192.28;5151680;28;20046;-72
2023/01/15 09:23:55;;;;;;;0.60;0.20;;;;;;;6.06;75.27;98196.00;5149246;28;20070;-71
2023/01/15 09:26:46;;;;;;;0.52;0.10;;;;;;;6.16;73.66;98197.81;5155897;28;20175;-74
2023/01/15 09:29:36;;;;;;;0.20;0.10;;;;;;;6.29;74.48;98206.28;5148901;28;20053;-71
2023/01/15 09:32:27;;;;;;;0.68;0.20;;;;;;;5.88;76.14;98232.59;5153302;28;20562;-72
2023/01/15 09:35:17;;;;;;;0.30;0.20;;;;;;;5.57;76.13;98242.31;5153701;28;20067;-71
2023/01/15 09:38:11;;;;;;;0.45;0.30;;;;;;;5.51;76.00;98234.94;5163468;28;20508;-70
2023/01/15 09:42:04;;;;;;;0.77;0.35;;;;;;;5.90;75.24;98248.28;5154259;28;20050;-70
2023/01/15 09:44:38;;;;;;;0.40;0.10;;;;;;;5.87;77.08;98254.63;5158260;28;20421;-71
2023/01/15 09:47:35;;;;;;;0.82;0.30;;;;;;;6.13;74.76;98241.06;5162081;28;20085;-71
2023/01/15 09:50:56;;;;;;;1.55;0.30;;;;;;;6.08;75.28;98245.88;5149032;28;20061;-70
2023/01/15 09:53:58;;;;;;;0.63;0.35;;;;;;;5.44;76.63;98249.56;5158525;28;20439;-70
2023/01/15 09:56:48;;;;;;;0.10;0.10;;;;;;;5.66;75.62;98261.72;5143299;28;20123;-70
2023/01/15 09:59:42;;;;;;;1.92;0.15;;;;;;;6.22;73.62;98265.72;5153041;28;20436;-71
2023/01/15 10:02:46;;;;;;;2.17;0.20;;;;;;;6.27;74.94;98292.47;5145760;28;20113;-71
2023/01/15 10:05:57;;;;;;;0.40;0.20;;;;;;;6.49;72.59;98273.84;5154815;28;20055;-71
2023/01/15 10:08:52;;;;;;;0.38;0.22;;;;;;;6.50;72.43;98278.13;5151901;28;20631;-71
2023/01/15 10:15:24;;;;;;;0.20;0.20;;;;;;;6.48;72.99;98301.13;5241776;28;20060;-69
2023/01/15 10:18:25;;;;;;;0.55;0.20;;;;;;;6.48;72.67;98287.13;5222430;28;20707;-70
2023/01/15 10:21:25;;;;;;;1.40;0.32;;;;;;;6.17;72.69;98304.78;5220063;28;20506;-70
2023/01/15 10:24:25;;;;;;;1.90;0.20;;;;;;;5.98;72.45;98300.25;5222282;28;20052;-70
2023/01/15 10:27:20;;;;;;;0.22;0.20;;;;;;;5.31;75.16;98285.75;5254092;28;20079;-69
2023/01/15 10:30:27;;;;;;;3.22;0.20;;;;;;;6.62;72.34;98318.34;5222592;28;20056;-70
2023/01/15 10:33:29;;;;;;;1.23;0.30;;;;;;;5.94;73.55;98317.28;5237473;28;20068;-69
2023/01/15 10:36:38;;;;;;;1.38;0.30;;;;;;;5.51;74.88;98320.88;5231192;28;20056;-70
2023/01/15 10:39:41;;;;;;;0.20;0.20;;;;;;;5.55;74.14;98325.75;5225422;28;20056;-70
2023/01/15 10:42:53;;;;;;;0.10;0.10;;;;;;;5.18;75.35;98326.16;5230927;28;20201;-69
2023/01/15 10:45:47;;;;;;;0.30;0.20;;;;;;;5.34;75.30;98319.66;5220090;28;20057;-69
2023/01/15 10:48:58;;;;;;;0.77;0.38;;;;;;;5.68;72.91;98322.09;5216995;28;20471;-70
2023/01/15 10:51:56;;;;;;;3.03;0.40;;;;;;;5.79;75.03;98340.41;5219712;28;20510;-69
2023/01/15 10:54:56;;;;;;;0.10;0.10;;;;;;;5.26;75.05;98353.63;5199696;28;20108;-70
2023/01/15 10:58:29;;;;;;;0.77;0.20;;;;;;;5.49;75.69;98336.78;5203135;28;20049;-69
2023/01/15 11:01:22;;;;;;;1.17;0.20;;;;;;;5.86;74.50;98359.97;5155652;28;20424;-70
2023/01/15 11:04:12;;;;;;;0.65;0.45;;;;;;;5.19;75.67;98372.50;5219817;28;20561;-69
2023/01/15 11:07:04;;;;;;;1.33;0.40;;;;;;;5.15;76.26;98329.06;5218807;28;20076;-70
2023/01/15 11:10:04;;;;;;;1.02;0.30;;;;;;;5.72;73.55;98355.06;5211813;28;20132;-70
2023/01/15 11:19:45;;;;;;;0.80;0.38;;;;;;;5.25;74.58;98355.41;5221461;28;20416;-70
2023/01/15 11:22:37;;;;;;;1.10;0.40;;;;;;;4.88;76.91;98365.47;5211402;28;20134;-70
2023/01/15 11:25:30;;;;;;;3.08;0.30;;;;;;;5.09;74.59;98383.91;5226070;28;20178;-70
2023/01/15 11:28:45;;;;;;;0.47;0.28;;;;;;;4.87;74.55;98361.19;5211551;28;20052;-71
2023/01/15 11:31:37;;;;;;;3.05;0.38;;;;;;;4.90;75.43;98384.53;5204708;28;20046;-70
2023/01/15 11:34:27;;;;;;;0.65;0.30;;;;;;;4.66;75.66;98393.41;5207949;28;20061;-70
2023/01/15 11:37:17;;;;;;;0.45;0.30;;;;;;;4.89;74.92;98383.72;5216490;28;20046;-69
2023/01/15 11:40:25;;;;;;;1.00;0.30;;;;;;;4.68;75.76;98391.50;5203137;28;20126;-69
2023/01/15 11:52:59;;;;;;;1.45;0.28;;;;;;;4.84;74.59;98374.56;5210917;28;20094;-70
2023/01/15 11:55:59;;;;;;;0.47;0.25;;;;;;;4.72;75.02;98381.59;5237018;28;20215;-69
2023/01/15 11:58:55;;;;;;;2.15;0.40;;;;;;;4.22;75.13;98371.50;5197390;28;20064;-70
2023/01/15 12:02:03;;;;;;;0.47;0.22;;;;;;;5.02;75.13;98380.94;5204472;28;20056;-70
2023/01/15 12:04:58;;;;;;;1.38;0.35;;;;;;;5.18;71.32;98365.59;5205359;28;20084;-70
2023/01/15 12:07:52;;;;;;;2.30;0.40;;;;;;;5.62;71.13;98379.50;5213917;28;20065;-70
2023/01/15 12:11:03;;;;;;;0.73;0.50;;;;;;;4.76;72.92;98388.28;5207604;28;20047;-70
2023/01/15 12:14:38;;;;;;;2.05;0.88;;;;;;;5.08;71.35;98377.81;5220592;28;20508;-70
2023/01/15 12:17:53;;;;;;;2.67;1.10;;;;;;;5.70;69.48;98367.53;5210757;28;20049;-70
2023/01/15 12:20:56;;;;;;;2.22;0.88;;;;;;;5.47;69.97;98365.00;5206311;28;20046;-70
2023/01/15 12:24:12;;;;;;;3.00;0.65;;;;;;;5.01;69.98;98365.31;5217676;28;20063;-70
2023/01/15 12:27:18;;;;;;;4.88;0.60;;;;;;;4.79;70.46;98372.28;5224325;28;20171;-69
2023/01/15 12:30:22;;;;;;;2.38;0.50;;;;;;;5.38;69.34;98371.00;5205675;28;20049;-70
2023/01/15 12:33:19;;;;;;;2.35;0.70;;;;;;;5.87;68.21;98367.75;5196256;28;20106;-69
2023/01/15 12:36:21;;;;;;;1.83;0.60;;;;;;;5.61;67.84;98364.69;5215608;28;20063;-71
2023/01/15 12:39:18;;;;;;;1.95;0.32;;;;;;;6.06;68.28;98366.22;5200601;28;20633;-70
2023/01/15 12:45:33;;;;;;;3.42;0.57;;;;;;;5.56;67.58;98384.44;5204239;28;20111;-70
2023/01/15 12:48:35;;;;;;;3.85;0.30;;;;;;;5.61;66.43;98369.13;5203307;28;20069;-70
2023/01/15 12:51:34;;;;;;;3.55;0.50;;;;;;;5.38;67.82;98378.91;5200564;28;20503;-70
2023/01/15 12:54:35;;;;;;;5.10;0.68;;;;;;;5.54;67.69;98381.94;5204276;28;20049;-70
2023/01/15 12:57:43;;;;;;;7.35;0.80;;;;;;;6.06;66.60;98395.16;5198745;28;20057;-70
2023/01/15 13:00:41;;;;;;;3.15;1.58;;;;;;;6.39;65.33;98402.00;5201746;28;20527;-70
2023/01/15 13:03:55;;;;;;;2.22;0.90;;;;;;;6.42;65.82;98393.00;5204172;28;20052;-70
2023/01/15 13:06:53;;;;;;;4.82;0.80;;;;;;;6.32;66.29;98393.81;5203899;28;20056;-69
2023/01/15 13:09:51;;;;;;;6.45;0.77;;;;;;;6.67;64.35;98413.63;5201939;28;20186;-70
2023/01/15 13:12:42;;;;;;;9.00;1.25;;;;;;;6.78;64.58;98418.78;5203773;28;20052;-70
2023/01/15 13:15:39;;;;;;;3.80;1.02;;;;;;;6.72;65.17;98410.56;5224455;28;20071;-71
2023/01/15 13:18:51;;;;;;;5.70;1.85;;;;;;;7.11;63.76;98403.59;5206607;28;20103;-70
2023/01/15 13:21:44;;;;;;;6.10;1.77;;;;;;;6.90;63.47;98411.59;5214869;28;20049;-70
2023/01/15 13:25:05;;;;;;;5.88;1.80;;;;;;;6.95;64.71;98413.81;5219676;28;20106;-70
2023/01/15 13:28:07;;;;;;;4.03;1.45;;;;;;;7.36;62.79;98418.06;5211674;28;20045;-70
2023/01/15 13:31:29;;;;;;;5.03;1.10;;;;;;;6.42;64.92;98422.78;5202562;28;20569;-70
2023/01/15 13:34:33;;;;;;;2.83;1.00;;;;;;;6.88;62.59;98421.44;5203601;28;20060;-71
2023/01/15 13:37:31;;;;;;;5.45;1.70;;;;;;;6.65;63.40;98394.47;5193665;28;20056;-71
2023/01/15 13:40:31;;;;;;;3.35;0.95;;;;;;;6.85;63.26;98429.59;5207237;28;20064;-70
2023/01/15 13:43:32;;;;;;;2.47;0.90;;;;;;;7.16;62.41;98438.31;5204838;28;20557;-70
2023/01/15 13:46:22;;;;;;;5.93;1.00;;;;;;;7.14;61.75;98429.69;5202583;28;20526;-70
2023/01/15 13:49:20;;;;;;;3.63;0.77;;;;;;;6.41;62.41;98429.03;5199222;28;20076;-70
2023/01/15 13:52:23;;;;;;;4.95;0.70;;;;;;;6.56;62.92;98440.91;5211313;28;20052;-70
2023/01/15 13:55:30;;;;;;;4.13;1.25;;;;;;;7.07;61.57;98445.22;5202812;28;20199;-70
2023/01/15 13:58:26;;;;;;;3.63;0.80;;;;;;;6.92;60.82;98448.34;5212537;28;20089;-70
2023/01/15 14:01:19;;;;;;;2.92;0.82;;;;;;;7.02;60.93;98447.44;5210427;28;20056;-70
2023/01/15 14:04:11;;;;;;;4.00;0.85;;;;;;;7.49;59.67;98452.09;5219480;28;20724;-70
2023/01/15 14:07:01;;;;;;;3.90;0.80;;;;;;;7.30;59.49;98439.72;5218228;28;20053;-70
2023/01/15 14:09:51;;;;;;;2.72;0.93;;;;;;;7.12;60.41;98447.47;5202915;28;20049;-71
2023/01/15 14:12:47;;;;;;;4.75;1.13;;;;;;;6.94;60.91;98451.69;5216806;28;20419;-71
2023/01/15 14:16:05;;;;;;;6.20;1.23;;;;;;;7.12;61.10;98467.69;5190197;28;20052;-70
2023/01/15 14:19:20;;;;;;;3.63;1.05;;;;;;;7.54;59.53;98463.88;5209345;28;20068;-70
2023/01/15 14:22:48;;;;;;;4.80;1.10;;;;;;;7.31;58.95;98467.75;5234976;28;20049;-70
2023/01/15 14:26:00;;;;;;;4.45;1.00;;;;;;;7.39;59.39;98475.81;5218483;28;20060;-70
2023/01/15 14:29:03;;;;;;;3.90;0.70;;;;;;;7.50;58.79;98477.50;5198484;28;20049;-70
2023/01/15 14:32:20;;;;;;;3.22;0.90;;;;;;;7.10;58.87;98478.41;5198311;28;20053;-71
2023/01/15 14:35:17;;;;;;;5.22;1.30;;;;;;;7.53;58.27;98472.78;5202834;28;20427;-71
2023/01/15 14:38:14;;;;;;;2.70;0.90;;;;;;;7.65;57.07;98464.72;5185922;28;20508;-71
2023/01/15 14:41:06;;;;;;;4.95;1.30;;;;;;;7.05;58.13;98467.41;5206887;28;20073;-70